sensor_id;sensor_type;location;lat;lon;timestamp;P1;durP1;ratioP1;P2;durP2;ratioP2
69008;SDS011;56065;52.472;13.380;2024-03-23T00:53:03;9.15;;;1.73;;
69008;SDS011;56065;52.472;13.380;2024-03-23T00:55:29;13.57;;;1.73;;
69008;SDS011;56065;52.472;13.380;2024-03-23T00:57:54;9.23;;;1.37;;
69008;SDS011;56065;52.472;13.380;2024-03-23T01:00:19;10.80;;;1.73;;
69008;SDS011;56065;52.472;13.380;2024-03-23T01:02:45;11.73;;;1.63;;
69008;SDS011;56065;52.472;13.380;2024-03-23T01:05:10;9.57;;;1.50;;
69008;SDS011;56065;52.472;13.380;2024-03-23T01:07:36;11.73;;;1.30;;
69008;SDS011;56065;52.472;13.380;2024-03-23T01:10:01;9.50;;;1.80;;
69008;SDS011;56065;52.472;13.380;2024-03-23T01:12:27;11.67;;;1.90;;
69008;SDS011;56065;52.472;13.380;2024-03-23T01:14:52;16.07;;;1.80;;
69008;SDS011;56065;52.472;13.380;2024-03-23T01:17:17;9.27;;;1.57;;
69008;SDS011;56065;52.472;13.380;2024-03-23T01:19:43;11.63;;;1.93;;
69008;SDS011;56065;52.472;13.380;2024-03-23T01:22:08;10.37;;;1.40;;
69008;SDS011;56065;52.472;13.380;2024-03-23T01:24:35;13.07;;;1.80;;
69008;SDS011;56065;52.472;13.380;2024-03-23T01:27:00;9.50;;;1.73;;
69008;SDS011;56065;52.472;13.380;2024-03-23T01:29:25;12.53;;;2.00;;
69008;SDS011;56065;52.472;13.380;2024-03-23T01:31:51;10.90;;;1.87;;
69008;SDS011;56065;52.472;13.380;2024-03-23T01:34:16;10.37;;;1.70;;
69008;SDS011;56065;52.472;13.380;2024-03-23T01:36:41;10.33;;;1.60;;
69008;SDS011;56065;52.472;13.380;2024-03-23T01:39:07;11.07;;;1.67;;
69008;SDS011;56065;52.472;13.380;2024-03-23T01:41:34;9.98;;;1.40;;
69008;SDS011;56065;52.472;13.380;2024-03-23T01:44:00;9.45;;;1.30;;
69008;SDS011;56065;52.472;13.380;2024-03-23T01:46:30;11.30;;;2.47;;
69008;SDS011;56065;52.472;13.380;2024-03-23T01:48:55;8.83;;;1.80;;
69008;SDS011;56065;52.472;13.380;2024-03-23T01:51:21;16.93;;;2.50;;
69008;SDS011;56065;52.472;13.380;2024-03-23T01:53:48;9.18;;;2.15;;
69008;SDS011;56065;52.472;13.380;2024-03-23T01:56:14;11.13;;;1.80;;
69008;SDS011;56065;52.472;13.380;2024-03-23T01:58:39;9.17;;;1.80;;
69008;SDS011;56065;52.472;13.380;2024-03-23T02:01:04;10.67;;;2.30;;
69008;SDS011;56065;52.472;13.380;2024-03-23T02:03:29;10.43;;;1.70;;
69008;SDS011;56065;52.472;13.380;2024-03-23T02:05:55;9.43;;;1.47;;
69008;SDS011;56065;52.472;13.380;2024-03-23T02:08:21;10.25;;;1.92;;
69008;SDS011;56065;52.472;13.380;2024-03-23T02:10:51;12.52;;;1.67;;
69008;SDS011;56065;52.472;13.380;2024-03-23T02:13:17;15.27;;;1.93;;
69008;SDS011;56065;52.472;13.380;2024-03-23T02:15:43;12.23;;;2.42;;
69008;SDS011;56065;52.472;13.380;2024-03-23T02:18:09;12.82;;;2.10;;
69008;SDS011;56065;52.472;13.380;2024-03-23T02:20:35;13.55;;;1.95;;
69008;SDS011;56065;52.472;13.380;2024-03-23T02:23:01;13.87;;;1.93;;
69008;SDS011;56065;52.472;13.380;2024-03-23T02:25:26;16.33;;;2.05;;
69008;SDS011;56065;52.472;13.380;2024-03-23T02:27:52;19.10;;;2.13;;
69008;SDS011;56065;52.472;13.380;2024-03-23T02:30:19;13.30;;;2.00;;
69008;SDS011;56065;52.472;13.380;2024-03-23T02:32:44;10.70;;;1.80;;
69008;SDS011;56065;52.472;13.380;2024-03-23T02:35:09;12.43;;;1.77;;
69008;SDS011;56065;52.472;13.380;2024-03-23T02:37:35;13.70;;;2.47;;
69008;SDS011;56065;52.472;13.380;2024-03-23T02:40:00;11.30;;;1.53;;
69008;SDS011;56065;52.472;13.380;2024-03-23T02:42:25;12.23;;;1.70;;
69008;SDS011;56065;52.472;13.380;2024-03-23T02:44:51;14.93;;;1.88;;
69008;SDS011;56065;52.472;13.380;2024-03-23T02:47:16;8.13;;;1.60;;
69008;SDS011;56065;52.472;13.380;2024-03-23T02:49:41;15.27;;;1.77;;
69008;SDS011;56065;52.472;13.380;2024-03-23T02:52:06;9.57;;;1.47;;
69008;SDS011;56065;52.472;13.380;2024-03-23T02:54:32;15.13;;;2.23;;
69008;SDS011;56065;52.472;13.380;2024-03-23T02:56:57;9.33;;;1.77;;
69008;SDS011;56065;52.472;13.380;2024-03-23T02:59:22;10.57;;;1.70;;
69008;SDS011;56065;52.472;13.380;2024-03-23T03:01:47;11.20;;;1.57;;
69008;SDS011;56065;52.472;13.380;2024-03-23T03:04:13;15.83;;;2.10;;
69008;SDS011;56065;52.472;13.380;2024-03-23T03:06:38;12.53;;;2.20;;
69008;SDS011;56065;52.472;13.380;2024-03-23T03:09:03;10.57;;;1.50;;
69008;SDS011;56065;52.472;13.380;2024-03-23T03:11:29;14.20;;;1.60;;
69008;SDS011;56065;52.472;13.380;2024-03-23T03:13:54;13.53;;;2.20;;
69008;SDS011;56065;52.472;13.380;2024-03-23T03:16:20;12.73;;;1.40;;
69008;SDS011;56065;52.472;13.380;2024-03-23T03:18:45;11.53;;;2.20;;
69008;SDS011;56065;52.472;13.380;2024-03-23T03:21:11;11.83;;;1.70;;
69008;SDS011;56065;52.472;13.380;2024-03-23T03:23:37;10.50;;;1.77;;
69008;SDS011;56065;52.472;13.380;2024-03-23T03:26:03;16.55;;;1.90;;
69008;SDS011;56065;52.472;13.380;2024-03-23T03:28:29;11.70;;;2.73;;
69008;SDS011;56065;52.472;13.380;2024-03-23T03:30:56;12.02;;;1.67;;
69008;SDS011;56065;52.472;13.380;2024-03-23T03:33:22;12.50;;;2.28;;
69008;SDS011;56065;52.472;13.380;2024-03-23T03:35:47;14.87;;;2.10;;
69008;SDS011;56065;52.472;13.380;2024-03-23T03:38:12;8.90;;;1.70;;
69008;SDS011;56065;52.472;13.380;2024-03-23T03:40:38;9.27;;;1.73;;
69008;SDS011;56065;52.472;13.380;2024-03-23T03:43:03;14.90;;;1.50;;
69008;SDS011;56065;52.472;13.380;2024-03-23T03:45:28;12.10;;;1.73;;
69008;SDS011;56065;52.472;13.380;2024-03-23T03:47:54;12.40;;;1.83;;
69008;SDS011;56065;52.472;13.380;2024-03-23T03:50:19;11.97;;;1.77;;
69008;SDS011;56065;52.472;13.380;2024-03-23T03:52:46;14.50;;;2.15;;
69008;SDS011;56065;52.472;13.380;2024-03-23T03:55:15;12.30;;;1.87;;
69008;SDS011;56065;52.472;13.380;2024-03-23T03:57:41;9.07;;;1.73;;
69008;SDS011;56065;52.472;13.380;2024-03-23T04:00:06;11.97;;;1.80;;
69008;SDS011;56065;52.472;13.380;2024-03-23T04:02:36;10.90;;;1.98;;
69008;SDS011;56065;52.472;13.380;2024-03-23T04:05:02;9.02;;;1.73;;
69008;SDS011;56065;52.472;13.380;2024-03-23T04:07:28;11.57;;;1.70;;
69008;SDS011;56065;52.472;13.380;2024-03-23T04:09:53;10.57;;;2.15;;
69008;SDS011;56065;52.472;13.380;2024-03-23T04:12:19;9.77;;;1.50;;
69008;SDS011;56065;52.472;13.380;2024-03-23T04:14:45;15.35;;;2.47;;
69008;SDS011;56065;52.472;13.380;2024-03-23T04:17:10;11.53;;;1.80;;
69008;SDS011;56065;52.472;13.380;2024-03-23T04:19:35;9.67;;;2.03;;
69008;SDS011;56065;52.472;13.380;2024-03-23T04:22:00;15.83;;;1.70;;
69008;SDS011;56065;52.472;13.380;2024-03-23T04:24:26;8.77;;;1.60;;
69008;SDS011;56065;52.472;13.380;2024-03-23T04:26:51;8.97;;;1.50;;
69008;SDS011;56065;52.472;13.380;2024-03-23T04:29:17;9.70;;;1.47;;
69008;SDS011;56065;52.472;13.380;2024-03-23T04:31:42;12.67;;;1.90;;
69008;SDS011;56065;52.472;13.380;2024-03-23T04:34:08;7.57;;;1.20;;
69008;SDS011;56065;52.472;13.380;2024-03-23T04:36:33;9.57;;;1.20;;
69008;SDS011;56065;52.472;13.380;2024-03-23T04:38:59;7.87;;;1.30;;
69008;SDS011;56065;52.472;13.380;2024-03-23T04:41:25;5.67;;;1.10;;
69008;SDS011;56065;52.472;13.380;2024-03-23T04:43:51;5.18;;;1.20;;
69008;SDS011;56065;52.472;13.380;2024-03-23T04:46:16;7.77;;;1.47;;
69008;SDS011;56065;52.472;13.380;2024-03-23T04:48:41;8.50;;;1.00;;
69008;SDS011;56065;52.472;13.380;2024-03-23T04:51:09;4.97;;;0.85;;
69008;SDS011;56065;52.472;13.380;2024-03-23T04:53:34;7.60;;;1.47;;
69008;SDS011;56065;52.472;13.380;2024-03-23T04:55:59;6.47;;;1.17;;
69008;SDS011;56065;52.472;13.380;2024-03-23T04:58:25;10.57;;;1.20;;
69008;SDS011;56065;52.472;13.380;2024-03-23T05:00:54;7.20;;;1.10;;
69008;SDS011;56065;52.472;13.380;2024-03-23T05:03:20;6.80;;;1.00;;
69008;SDS011;56065;52.472;13.380;2024-03-23T05:05:46;6.18;;;0.65;;
69008;SDS011;56065;52.472;13.380;2024-03-23T05:08:11;6.23;;;0.97;;
69008;SDS011;56065;52.472;13.380;2024-03-23T05:10:37;6.93;;;1.30;;
69008;SDS011;56065;52.472;13.380;2024-03-23T05:13:03;5.93;;;0.90;;
69008;SDS011;56065;52.472;13.380;2024-03-23T05:15:28;9.07;;;1.25;;
69008;SDS011;56065;52.472;13.380;2024-03-23T05:17:54;6.25;;;1.10;;
69008;SDS011;56065;52.472;13.380;2024-03-23T05:20:20;9.23;;;1.53;;
69008;SDS011;56065;52.472;13.380;2024-03-23T05:22:45;8.90;;;1.50;;
69008;SDS011;56065;52.472;13.380;2024-03-23T05:25:11;10.40;;;1.48;;
69008;SDS011;56065;52.472;13.380;2024-03-23T05:27:37;9.57;;;1.10;;
69008;SDS011;56065;52.472;13.380;2024-03-23T05:30:02;6.33;;;1.23;;
69008;SDS011;56065;52.472;13.380;2024-03-23T05:32:29;8.23;;;1.10;;
69008;SDS011;56065;52.472;13.380;2024-03-23T05:34:54;9.30;;;2.07;;
69008;SDS011;56065;52.472;13.380;2024-03-23T05:37:23;11.38;;;1.52;;
69008;SDS011;56065;52.472;13.380;2024-03-23T05:39:48;9.70;;;1.70;;
69008;SDS011;56065;52.472;13.380;2024-03-23T05:42:17;6.80;;;1.10;;
69008;SDS011;56065;52.472;13.380;2024-03-23T05:44:44;6.47;;;0.83;;
69008;SDS011;56065;52.472;13.380;2024-03-23T05:47:10;4.85;;;0.60;;
69008;SDS011;56065;52.472;13.380;2024-03-23T05:49:35;7.20;;;1.27;;
69008;SDS011;56065;52.472;13.380;2024-03-23T05:52:00;5.30;;;1.10;;
69008;SDS011;56065;52.472;13.380;2024-03-23T05:54:28;6.85;;;1.30;;
69008;SDS011;56065;52.472;13.380;2024-03-23T05:56:54;10.82;;;1.42;;
69008;SDS011;56065;52.472;13.380;2024-03-23T05:59:20;6.95;;;1.17;;
69008;SDS011;56065;52.472;13.380;2024-03-23T06:01:46;10.63;;;1.53;;
69008;SDS011;56065;52.472;13.380;2024-03-23T06:04:12;7.97;;;1.30;;
69008;SDS011;56065;52.472;13.380;2024-03-23T06:06:38;9.47;;;1.30;;
69008;SDS011;56065;52.472;13.380;2024-03-23T06:09:04;6.53;;;1.27;;
69008;SDS011;56065;52.472;13.380;2024-03-23T06:11:29;8.03;;;1.30;;
69008;SDS011;56065;52.472;13.380;2024-03-23T06:13:55;3.73;;;0.60;;
69008;SDS011;56065;52.472;13.380;2024-03-23T06:16:21;8.40;;;0.70;;
69008;SDS011;56065;52.472;13.380;2024-03-23T06:18:49;8.02;;;1.63;;
69008;SDS011;56065;52.472;13.380;2024-03-23T06:21:15;6.55;;;1.00;;
69008;SDS011;56065;52.472;13.380;2024-03-23T06:23:40;5.80;;;1.00;;
69008;SDS011;56065;52.472;13.380;2024-03-23T06:26:06;9.65;;;1.20;;
69008;SDS011;56065;52.472;13.380;2024-03-23T06:28:32;8.10;;;1.10;;
69008;SDS011;56065;52.472;13.380;2024-03-23T06:30:57;6.03;;;1.10;;
69008;SDS011;56065;52.472;13.380;2024-03-23T06:33:22;7.80;;;1.20;;
69008;SDS011;56065;52.472;13.380;2024-03-23T06:35:52;9.48;;;1.30;;
69008;SDS011;56065;52.472;13.380;2024-03-23T06:38:18;9.07;;;1.40;;
69008;SDS011;56065;52.472;13.380;2024-03-23T06:40:43;7.00;;;1.03;;
69008;SDS011;56065;52.472;13.380;2024-03-23T06:43:12;6.95;;;0.98;;
69008;SDS011;56065;52.472;13.380;2024-03-23T06:45:38;6.28;;;0.93;;
69008;SDS011;56065;52.472;13.380;2024-03-23T06:48:04;7.07;;;1.00;;
69008;SDS011;56065;52.472;13.380;2024-03-23T06:50:29;10.40;;;0.97;;
69008;SDS011;56065;52.472;13.380;2024-03-23T06:52:54;8.83;;;1.10;;
69008;SDS011;56065;52.472;13.380;2024-03-23T06:55:20;5.93;;;0.55;;
69008;SDS011;56065;52.472;13.380;2024-03-23T06:57:45;7.40;;;0.97;;
69008;SDS011;56065;52.472;13.380;2024-03-23T07:00:11;10.10;;;1.23;;
69008;SDS011;56065;52.472;13.380;2024-03-23T07:02:38;8.30;;;0.80;;
69008;SDS011;56065;52.472;13.380;2024-03-23T07:05:03;8.07;;;1.00;;
69008;SDS011;56065;52.472;13.380;2024-03-23T07:07:29;9.10;;;1.30;;
69008;SDS011;56065;52.472;13.380;2024-03-23T07:09:55;7.53;;;1.08;;
69008;SDS011;56065;52.472;13.380;2024-03-23T07:12:20;4.80;;;0.80;;
69008;SDS011;56065;52.472;13.380;2024-03-23T07:14:46;5.07;;;1.03;;
69008;SDS011;56065;52.472;13.380;2024-03-23T07:17:11;6.47;;;1.30;;
69008;SDS011;56065;52.472;13.380;2024-03-23T07:19:36;7.20;;;1.00;;
69008;SDS011;56065;52.472;13.380;2024-03-23T07:22:01;5.07;;;0.90;;
69008;SDS011;56065;52.472;13.380;2024-03-23T07:24:27;6.53;;;0.97;;
69008;SDS011;56065;52.472;13.380;2024-03-23T07:26:52;4.78;;;1.00;;
69008;SDS011;56065;52.472;13.380;2024-03-23T07:29:19;7.63;;;1.10;;
69008;SDS011;56065;52.472;13.380;2024-03-23T07:31:44;4.60;;;0.80;;
69008;SDS011;56065;52.472;13.380;2024-03-23T07:34:09;6.50;;;1.43;;
69008;SDS011;56065;52.472;13.380;2024-03-23T07:36:35;9.17;;;1.37;;
69008;SDS011;56065;52.472;13.380;2024-03-23T07:39:00;8.80;;;1.57;;
69008;SDS011;56065;52.472;13.380;2024-03-23T07:41:25;10.20;;;1.20;;
69008;SDS011;56065;52.472;13.380;2024-03-23T07:43:53;7.68;;;1.27;;
69008;SDS011;56065;52.472;13.380;2024-03-23T07:46:18;5.93;;;1.17;;
69008;SDS011;56065;52.472;13.380;2024-03-23T07:48:45;6.43;;;0.93;;
69008;SDS011;56065;52.472;13.380;2024-03-23T07:51:17;5.65;;;1.23;;
69008;SDS011;56065;52.472;13.380;2024-03-23T07:53:45;5.97;;;1.10;;
69008;SDS011;56065;52.472;13.380;2024-03-23T07:56:17;7.15;;;0.93;;
69008;SDS011;56065;52.472;13.380;2024-03-23T07:58:44;8.05;;;1.10;;
69008;SDS011;56065;52.472;13.380;2024-03-23T08:01:11;5.95;;;1.25;;
69008;SDS011;56065;52.472;13.380;2024-03-23T08:03:38;9.38;;;1.58;;
69008;SDS011;56065;52.472;13.380;2024-03-23T08:06:15;9.07;;;1.33;;
69008;SDS011;56065;52.472;13.380;2024-03-23T08:08:42;8.43;;;1.50;;
69008;SDS011;56065;52.472;13.380;2024-03-23T08:11:08;6.30;;;0.85;;
69008;SDS011;56065;52.472;13.380;2024-03-23T08:13:34;9.20;;;1.00;;
69008;SDS011;56065;52.472;13.380;2024-03-23T08:16:00;8.18;;;0.90;;
69008;SDS011;56065;52.472;13.380;2024-03-23T08:18:27;6.70;;;1.58;;
69008;SDS011;56065;52.472;13.380;2024-03-23T08:21:02;7.67;;;1.30;;
69008;SDS011;56065;52.472;13.380;2024-03-23T08:23:29;8.18;;;1.33;;
69008;SDS011;56065;52.472;13.380;2024-03-23T08:26:02;6.47;;;0.90;;
69008;SDS011;56065;52.472;13.380;2024-03-23T08:28:28;4.97;;;0.82;;
69008;SDS011;56065;52.472;13.380;2024-03-23T08:30:54;8.43;;;1.20;;
69008;SDS011;56065;52.472;13.380;2024-03-23T08:33:20;4.67;;;0.90;;
69008;SDS011;56065;52.472;13.380;2024-03-23T08:38:28;5.18;;;1.13;;
69008;SDS011;56065;52.472;13.380;2024-03-23T08:41:00;9.30;;;1.30;;
69008;SDS011;56065;52.472;13.380;2024-03-23T08:43:25;5.03;;;0.75;;
69008;SDS011;56065;52.472;13.380;2024-03-23T08:45:51;5.22;;;0.77;;
69008;SDS011;56065;52.472;13.380;2024-03-23T08:48:17;8.67;;;1.17;;
69008;SDS011;56065;52.472;13.380;2024-03-23T08:50:43;6.80;;;1.10;;
69008;SDS011;56065;52.472;13.380;2024-03-23T08:53:08;8.20;;;1.47;;
69008;SDS011;56065;52.472;13.380;2024-03-23T08:55:33;5.30;;;0.90;;
69008;SDS011;56065;52.472;13.380;2024-03-23T08:57:59;8.67;;;1.50;;
69008;SDS011;56065;52.472;13.380;2024-03-23T09:00:25;4.80;;;0.70;;
69008;SDS011;56065;52.472;13.380;2024-03-23T09:02:50;7.20;;;1.67;;
69008;SDS011;56065;52.472;13.380;2024-03-23T09:05:16;7.60;;;1.10;;
69008;SDS011;56065;52.472;13.380;2024-03-23T09:07:41;5.27;;;1.30;;
69008;SDS011;56065;52.472;13.380;2024-03-23T09:10:06;6.20;;;1.20;;
69008;SDS011;56065;52.472;13.380;2024-03-23T09:12:32;6.07;;;0.83;;
69008;SDS011;56065;52.472;13.380;2024-03-23T09:14:57;4.57;;;0.80;;
69008;SDS011;56065;52.472;13.380;2024-03-23T09:17:23;5.73;;;0.80;;
69008;SDS011;56065;52.472;13.380;2024-03-23T09:19:48;3.77;;;0.53;;
69008;SDS011;56065;52.472;13.380;2024-03-23T09:22:13;5.87;;;0.80;;
69008;SDS011;56065;52.472;13.380;2024-03-23T09:24:39;5.55;;;0.98;;
69008;SDS011;56065;52.472;13.380;2024-03-23T09:27:05;3.37;;;0.63;;
69008;SDS011;56065;52.472;13.380;2024-03-23T09:29:30;5.13;;;0.50;;
69008;SDS011;56065;52.472;13.380;2024-03-23T09:31:55;4.17;;;0.60;;
69008;SDS011;56065;52.472;13.380;2024-03-23T09:34:21;3.03;;;0.63;;
69008;SDS011;56065;52.472;13.380;2024-03-23T09:36:47;3.77;;;0.60;;
69008;SDS011;56065;52.472;13.380;2024-03-23T09:39:15;7.15;;;0.80;;
69008;SDS011;56065;52.472;13.380;2024-03-23T09:41:40;6.47;;;0.93;;
69008;SDS011;56065;52.472;13.380;2024-03-23T09:44:06;7.25;;;1.17;;
69008;SDS011;56065;52.472;13.380;2024-03-23T09:46:32;7.40;;;1.30;;
69008;SDS011;56065;52.472;13.380;2024-03-23T09:49:01;8.20;;;1.25;;
69008;SDS011;56065;52.472;13.380;2024-03-23T09:51:29;5.85;;;1.10;;
69008;SDS011;56065;52.472;13.380;2024-03-23T09:53:54;6.10;;;1.03;;
69008;SDS011;56065;52.472;13.380;2024-03-23T09:56:20;6.00;;;1.07;;
69008;SDS011;56065;52.472;13.380;2024-03-23T09:58:46;7.13;;;1.23;;
69008;SDS011;56065;52.472;13.380;2024-03-23T10:01:11;5.10;;;0.97;;
69008;SDS011;56065;52.472;13.380;2024-03-23T10:03:43;6.30;;;1.27;;
69008;SDS011;56065;52.472;13.380;2024-03-23T10:06:09;10.40;;;1.00;;
69008;SDS011;56065;52.472;13.380;2024-03-23T10:08:34;7.43;;;0.80;;
69008;SDS011;56065;52.472;13.380;2024-03-23T10:11:12;10.02;;;0.98;;
69008;SDS011;56065;52.472;13.380;2024-03-23T10:13:38;4.95;;;1.17;;
69008;SDS011;56065;52.472;13.380;2024-03-23T10:16:07;4.67;;;0.87;;
69008;SDS011;56065;52.472;13.380;2024-03-23T10:18:32;5.80;;;0.60;;
69008;SDS011;56065;52.472;13.380;2024-03-23T10:23:30;5.07;;;0.90;;
69008;SDS011;56065;52.472;13.380;2024-03-23T10:26:08;3.83;;;0.63;;
69008;SDS011;56065;52.472;13.380;2024-03-23T10:28:45;5.40;;;1.07;;
69008;SDS011;56065;52.472;13.380;2024-03-23T10:31:32;7.05;;;1.02;;
69008;SDS011;56065;52.472;13.380;2024-03-23T10:33:58;6.57;;;0.82;;
69008;SDS011;56065;52.472;13.380;2024-03-23T10:36:25;5.90;;;0.77;;
69008;SDS011;56065;52.472;13.380;2024-03-23T10:38:51;6.73;;;0.93;;
69008;SDS011;56065;52.472;13.380;2024-03-23T10:41:17;5.33;;;1.20;;
69008;SDS011;56065;52.472;13.380;2024-03-23T10:43:44;7.40;;;1.37;;
69008;SDS011;56065;52.472;13.380;2024-03-23T10:46:11;8.82;;;0.95;;
69008;SDS011;56065;52.472;13.380;2024-03-23T10:48:36;6.57;;;1.40;;
69008;SDS011;56065;52.472;13.380;2024-03-23T10:51:01;5.63;;;1.17;;
69008;SDS011;56065;52.472;13.380;2024-03-23T10:53:28;7.07;;;0.85;;
69008;SDS011;56065;52.472;13.380;2024-03-23T10:55:54;9.57;;;1.33;;
69008;SDS011;56065;52.472;13.380;2024-03-23T10:58:42;9.18;;;1.10;;
69008;SDS011;56065;52.472;13.380;2024-03-23T11:01:10;8.23;;;1.50;;
69008;SDS011;56065;52.472;13.380;2024-03-23T11:03:36;7.47;;;1.10;;
69008;SDS011;56065;52.472;13.380;2024-03-23T11:06:03;9.65;;;1.25;;
69008;SDS011;56065;52.472;13.380;2024-03-23T11:08:30;6.13;;;0.73;;
69008;SDS011;56065;52.472;13.380;2024-03-23T11:11:17;5.90;;;0.77;;
69008;SDS011;56065;52.472;13.380;2024-03-23T11:13:44;6.07;;;1.65;;
69008;SDS011;56065;52.472;13.380;2024-03-23T11:16:13;4.10;;;0.88;;
69008;SDS011;56065;52.472;13.380;2024-03-23T11:18:46;6.03;;;0.90;;
69008;SDS011;56065;52.472;13.380;2024-03-23T11:21:11;5.07;;;1.00;;
69008;SDS011;56065;52.472;13.380;2024-03-23T11:24:15;7.15;;;0.90;;
69008;SDS011;56065;52.472;13.380;2024-03-23T11:26:41;5.23;;;1.00;;
69008;SDS011;56065;52.472;13.380;2024-03-23T11:29:10;10.10;;;1.20;;
69008;SDS011;56065;52.472;13.380;2024-03-23T11:31:36;6.10;;;1.10;;
69008;SDS011;56065;52.472;13.380;2024-03-23T11:34:06;6.78;;;1.00;;
69008;SDS011;56065;52.472;13.380;2024-03-23T11:36:32;6.22;;;1.08;;
69008;SDS011;56065;52.472;13.380;2024-03-23T11:38:57;4.85;;;1.00;;
69008;SDS011;56065;52.472;13.380;2024-03-23T11:41:22;7.10;;;1.10;;
69008;SDS011;56065;52.472;13.380;2024-03-23T11:43:48;5.77;;;0.90;;
69008;SDS011;56065;52.472;13.380;2024-03-23T11:46:21;4.50;;;0.90;;
69008;SDS011;56065;52.472;13.380;2024-03-23T11:48:50;8.25;;;1.08;;
69008;SDS011;56065;52.472;13.380;2024-03-23T11:51:16;5.87;;;0.93;;
69008;SDS011;56065;52.472;13.380;2024-03-23T11:53:42;8.27;;;0.90;;
69008;SDS011;56065;52.472;13.380;2024-03-23T11:56:07;6.87;;;1.40;;
69008;SDS011;56065;52.472;13.380;2024-03-23T11:58:34;6.53;;;1.08;;
69008;SDS011;56065;52.472;13.380;2024-03-23T12:01:00;7.22;;;1.10;;
69008;SDS011;56065;52.472;13.380;2024-03-23T12:03:27;8.63;;;1.00;;
69008;SDS011;56065;52.472;13.380;2024-03-23T12:05:54;7.15;;;1.48;;
69008;SDS011;56065;52.472;13.380;2024-03-23T12:08:24;5.05;;;0.93;;
69008;SDS011;56065;52.472;13.380;2024-03-23T12:10:51;6.07;;;0.77;;
69008;SDS011;56065;52.472;13.380;2024-03-23T12:13:17;5.77;;;0.97;;
69008;SDS011;56065;52.472;13.380;2024-03-23T12:15:47;5.38;;;0.90;;
69008;SDS011;56065;52.472;13.380;2024-03-23T12:18:14;7.45;;;0.95;;
69008;SDS011;56065;52.472;13.380;2024-03-23T12:20:39;5.60;;;0.80;;
69008;SDS011;56065;52.472;13.380;2024-03-23T12:23:05;6.43;;;1.15;;
69008;SDS011;56065;52.472;13.380;2024-03-23T12:25:40;7.13;;;1.10;;
69008;SDS011;56065;52.472;13.380;2024-03-23T12:28:06;9.95;;;1.60;;
69008;SDS011;56065;52.472;13.380;2024-03-23T12:30:35;5.65;;;0.80;;
69008;SDS011;56065;52.472;13.380;2024-03-23T12:33:04;6.43;;;1.00;;
69008;SDS011;56065;52.472;13.380;2024-03-23T12:35:29;7.43;;;1.27;;
69008;SDS011;56065;52.472;13.380;2024-03-23T12:37:55;7.30;;;1.07;;
69008;SDS011;56065;52.472;13.380;2024-03-23T12:40:20;8.90;;;1.33;;
69008;SDS011;56065;52.472;13.380;2024-03-23T12:42:45;8.23;;;1.03;;
69008;SDS011;56065;52.472;13.380;2024-03-23T12:45:11;8.18;;;1.10;;
69008;SDS011;56065;52.472;13.380;2024-03-23T12:47:36;7.97;;;1.00;;
69008;SDS011;56065;52.472;13.380;2024-03-23T12:50:01;5.80;;;0.73;;
69008;SDS011;56065;52.472;13.380;2024-03-23T12:52:27;6.70;;;0.80;;
69008;SDS011;56065;52.472;13.380;2024-03-23T12:54:55;1.85;;;0.30;;
69008;SDS011;56065;52.472;13.380;2024-03-23T12:57:22;5.55;;;0.55;;
69008;SDS011;56065;52.472;13.380;2024-03-23T12:59:48;4.30;;;0.30;;
69008;SDS011;56065;52.472;13.380;2024-03-23T13:02:16;5.68;;;0.85;;
69008;SDS011;56065;52.472;13.380;2024-03-23T13:04:50;5.22;;;0.40;;
69008;SDS011;56065;52.472;13.380;2024-03-23T13:07:17;3.38;;;0.50;;
69008;SDS011;56065;52.472;13.380;2024-03-23T13:09:43;3.50;;;0.55;;
69008;SDS011;56065;52.472;13.380;2024-03-23T13:12:09;5.33;;;0.70;;
69008;SDS011;56065;52.472;13.380;2024-03-23T13:14:34;7.38;;;0.90;;
69008;SDS011;56065;52.472;13.380;2024-03-23T13:17:00;8.20;;;0.80;;
69008;SDS011;56065;52.472;13.380;2024-03-23T13:19:27;5.95;;;0.90;;
69008;SDS011;56065;52.472;13.380;2024-03-23T13:21:53;7.78;;;1.20;;
69008;SDS011;56065;52.472;13.380;2024-03-23T13:24:23;12.13;;;1.43;;
69008;SDS011;56065;52.472;13.380;2024-03-23T13:26:49;5.50;;;0.77;;
69008;SDS011;56065;52.472;13.380;2024-03-23T13:29:21;4.82;;;0.73;;
69008;SDS011;56065;52.472;13.380;2024-03-23T13:31:50;6.07;;;0.88;;
69008;SDS011;56065;52.472;13.380;2024-03-23T13:34:16;6.90;;;0.90;;
69008;SDS011;56065;52.472;13.380;2024-03-23T13:36:42;8.63;;;1.47;;
69008;SDS011;56065;52.472;13.380;2024-03-23T13:39:08;7.80;;;1.17;;
69008;SDS011;56065;52.472;13.380;2024-03-23T13:41:37;5.78;;;1.00;;
69008;SDS011;56065;52.472;13.380;2024-03-23T13:44:07;9.93;;;1.27;;
69008;SDS011;56065;52.472;13.380;2024-03-23T13:46:33;7.57;;;0.97;;
69008;SDS011;56065;52.472;13.380;2024-03-23T13:48:59;6.43;;;1.45;;
69008;SDS011;56065;52.472;13.380;2024-03-23T13:51:25;9.10;;;1.70;;
69008;SDS011;56065;52.472;13.380;2024-03-23T13:53:52;7.57;;;1.53;;
69008;SDS011;56065;52.472;13.380;2024-03-23T13:56:19;8.50;;;1.70;;
69008;SDS011;56065;52.472;13.380;2024-03-23T13:58:44;6.67;;;1.27;;
69008;SDS011;56065;52.472;13.380;2024-03-23T14:01:11;9.75;;;1.42;;
69008;SDS011;56065;52.472;13.380;2024-03-23T14:03:37;6.60;;;1.15;;
69008;SDS011;56065;52.472;13.380;2024-03-23T14:06:03;7.67;;;2.00;;
69008;SDS011;56065;52.472;13.380;2024-03-23T14:08:29;9.90;;;2.33;;
69008;SDS011;56065;52.472;13.380;2024-03-23T14:10:57;12.02;;;1.83;;
69008;SDS011;56065;52.472;13.380;2024-03-23T14:13:22;6.20;;;1.17;;
69008;SDS011;56065;52.472;13.380;2024-03-23T14:15:52;9.77;;;1.60;;
69008;SDS011;56065;52.472;13.380;2024-03-23T14:18:18;7.03;;;1.65;;
69008;SDS011;56065;52.472;13.380;2024-03-23T14:20:43;14.97;;;2.20;;
69008;SDS011;56065;52.472;13.380;2024-03-23T14:23:09;10.00;;;1.67;;
69008;SDS011;56065;52.472;13.380;2024-03-23T14:25:34;13.03;;;1.87;;
69008;SDS011;56065;52.472;13.380;2024-03-23T14:27:59;9.23;;;1.70;;
69008;SDS011;56065;52.472;13.380;2024-03-23T14:30:25;7.90;;;1.47;;
69008;SDS011;56065;52.472;13.380;2024-03-23T14:32:50;6.57;;;1.33;;
69008;SDS011;56065;52.472;13.380;2024-03-23T14:35:16;7.70;;;1.50;;
69008;SDS011;56065;52.472;13.380;2024-03-23T14:37:41;9.13;;;1.50;;
69008;SDS011;56065;52.472;13.380;2024-03-23T14:40:07;11.20;;;1.60;;
69008;SDS011;56065;52.472;13.380;2024-03-23T14:42:33;9.30;;;1.77;;
69008;SDS011;56065;52.472;13.380;2024-03-23T14:44:58;8.57;;;2.00;;
69008;SDS011;56065;52.472;13.380;2024-03-23T14:47:23;7.63;;;2.03;;
69008;SDS011;56065;52.472;13.380;2024-03-23T14:49:49;5.90;;;1.23;;
69008;SDS011;56065;52.472;13.380;2024-03-23T14:52:18;6.13;;;1.50;;
69008;SDS011;56065;52.472;13.380;2024-03-23T14:54:44;5.18;;;1.20;;
69008;SDS011;56065;52.472;13.380;2024-03-23T14:57:09;4.90;;;1.20;;
69008;SDS011;56065;52.472;13.380;2024-03-23T14:59:35;5.43;;;1.13;;
69008;SDS011;56065;52.472;13.380;2024-03-23T15:02:03;3.83;;;1.08;;
69008;SDS011;56065;52.472;13.380;2024-03-23T15:04:29;5.30;;;1.40;;
69008;SDS011;56065;52.472;13.380;2024-03-23T15:06:54;7.60;;;1.07;;
69008;SDS011;56065;52.472;13.380;2024-03-23T15:09:19;8.47;;;1.20;;
69008;SDS011;56065;52.472;13.380;2024-03-23T15:11:44;4.40;;;0.70;;
69008;SDS011;56065;52.472;13.380;2024-03-23T15:14:10;3.60;;;0.73;;
69008;SDS011;56065;52.472;13.380;2024-03-23T15:16:36;6.10;;;1.10;;
69008;SDS011;56065;52.472;13.380;2024-03-23T15:19:01;4.57;;;0.80;;
69008;SDS011;56065;52.472;13.380;2024-03-23T15:21:27;5.00;;;0.63;;
69008;SDS011;56065;52.472;13.380;2024-03-23T15:23:52;5.20;;;1.00;;